Time;durP1;ratioP1;P1;durP2;ratioP2;P2;SDS_P1;SDS_P2;PMS_P1;PMS_P2;Temp;Humidity;BMP_temperature;BMP_pressure;BME280_temperature;BME280_humidity;BME280_pressure;Samples;Min_cycle;Max_cycle;Signal;HPM_P1;HPM_P2
2023/05/20 00:02:07;;;;;;;8.82;4.60;;;16.40;66.30;;;;;;5035809;28;20104;-69
2023/05/20 00:04:33;;;;;;;9.38;5.00;;;16.40;66.30;;;;;;5036045;28;20112;-69
2023/05/20 00:06:59;;;;;;;8.50;4.78;;;16.40;66.20;;;;;;5035738;28;20083;-67
2023/05/20 00:09:25;;;;;;;8.02;4.72;;;16.40;66.30;;;;;;5035668;28;20030;-67
2023/05/20 00:11:51;;;;;;;8.25;5.00;;;16.40;66.10;;;;;;5036241;28;20037;-66
2023/05/20 00:14:17;;;;;;;7.88;4.75;;;16.40;66.10;;;;;;5035701;28;20450;-66
2023/05/20 00:16:43;;;;;;;8.02;4.75;;;16.40;66.10;;;;;;5035848;28;20026;-67
2023/05/20 00:19:09;;;;;;;6.90;4.05;;;16.40;66.20;;;;;;5035520;28;20047;-67
2023/05/20 00:21:35;;;;;;;8.60;5.00;;;16.40;66.20;;;;;;5035721;28;20421;-66
2023/05/20 00:24:01;;;;;;;8.70;4.82;;;16.40;66.20;;;;;;5035240;28;20017;-66
2023/05/20 00:26:28;;;;;;;7.10;4.20;;;16.40;66.30;;;;;;5036018;28;20025;-67
2023/05/20 00:28:54;;;;;;;8.50;4.35;;;16.40;66.40;;;;;;5035658;28;20029;-67
2023/05/20 00:31:20;;;;;;;5.68;3.75;;;16.40;66.40;;;;;;5035909;28;20037;-67
2023/05/20 00:33:46;;;;;;;8.52;4.45;;;16.40;66.50;;;;;;5035239;28;20112;-67
2023/05/20 00:36:12;;;;;;;7.28;4.25;;;16.40;66.40;;;;;;5035572;28;20104;-68
2023/05/20 00:38:38;;;;;;;5.93;3.70;;;16.40;66.50;;;;;;5035558;28;20461;-69
2023/05/20 00:41:04;;;;;;;6.68;4.15;;;16.40;66.70;;;;;;5035421;28;20025;-69
2023/05/20 00:43:30;;;;;;;7.00;4.32;;;16.40;66.70;;;;;;5035428;28;20408;-69
2023/05/20 00:45:56;;;;;;;7.88;4.82;;;16.40;66.80;;;;;;5035182;28;20342;-69
2023/05/20 00:48:22;;;;;;;7.05;4.22;;;16.40;66.80;;;;;;5035432;28;20026;-67
2023/05/20 00:50:49;;;;;;;6.05;4.00;;;16.40;66.80;;;;;;5034789;28;20033;-66
2023/05/20 00:53:18;;;;;;;5.43;3.63;;;16.40;66.90;;;;;;5035294;28;20029;-67
2023/05/20 00:55:44;;;;;;;6.28;3.80;;;16.30;66.90;;;;;;5035369;28;20045;-66
2023/05/20 00:58:10;;;;;;;6.40;4.00;;;16.40;67.00;;;;;;5035369;28;20029;-67
2023/05/20 01:00:37;;;;;;;9.63;3.90;;;16.40;67.00;;;;;;5035021;28;20040;-69
2023/05/20 01:03:04;;;;;;;6.03;3.78;;;16.30;67.00;;;;;;5035553;28;20454;-69
2023/05/20 01:05:30;;;;;;;6.22;3.75;;;16.30;67.00;;;;;;5034895;28;20033;-69
2023/05/20 01:07:56;;;;;;;5.70;3.80;;;16.40;67.10;;;;;;5035007;28;20036;-69
2023/05/20 01:10:26;;;;;;;5.50;3.55;;;16.40;67.30;;;;;;5038377;28;20025;-67
2023/05/20 01:12:57;;;;;;;5.32;3.50;;;16.40;67.30;;;;;;5039552;28;20026;-67
2023/05/20 01:15:26;;;;;;;7.60;3.80;;;16.30;67.30;;;;;;5039485;28;20029;-67
2023/05/20 01:18:00;;;;;;;5.35;3.33;;;16.30;67.50;;;;;;5038924;28;20026;-67
2023/05/20 01:20:31;;;;;;;7.30;3.63;;;16.30;67.70;;;;;;5038792;28;20034;-67
2023/05/20 01:22:57;;;;;;;7.03;4.03;;;16.30;67.80;;;;;;5039158;28;20080;-67
2023/05/20 01:25:26;;;;;;;6.97;3.80;;;16.30;68.00;;;;;;5038524;28;20061;-69
2023/05/20 01:27:54;;;;;;;6.63;3.80;;;16.30;68.10;;;;;;5039275;28;20021;-67
2023/05/20 01:30:21;;;;;;;6.25;3.95;;;16.30;68.30;;;;;;5037769;28;20458;-67
2023/05/20 01:32:53;;;;;;;5.60;3.65;;;16.30;68.40;;;;;;5038931;28;20470;-67
2023/05/20 01:35:21;;;;;;;6.10;4.05;;;16.30;68.50;;;;;;5038678;28;20070;-67
2023/05/20 01:37:49;;;;;;;5.68;3.95;;;16.30;69.00;;;;;;5038847;28;20155;-66
2023/05/20 01:40:15;;;;;;;8.65;4.20;;;16.30;68.90;;;;;;5038676;28;20053;-70
2023/05/20 01:42:44;;;;;;;8.25;4.22;;;16.20;68.90;;;;;;5038749;28;20067;-67
2023/05/20 01:45:10;;;;;;;7.03;4.28;;;16.20;68.90;;;;;;5038633;28;20025;-67
2023/05/20 01:47:36;;;;;;;7.32;4.30;;;16.20;69.10;;;;;;5038386;28;20037;-67
2023/05/20 01:50:02;;;;;;;7.28;4.10;;;16.20;69.30;;;;;;5038361;28;20025;-67
2023/05/20 01:52:28;;;;;;;5.50;3.80;;;16.20;69.40;;;;;;5038316;28;20026;-67
2023/05/20 01:54:54;;;;;;;6.38;3.95;;;16.10;69.60;;;;;;5038724;28;20097;-70
2023/05/20 01:57:21;;;;;;;6.35;3.92;;;16.10;69.70;;;;;;5038219;28;20029;-67
2023/05/20 01:59:47;;;;;;;5.90;3.92;;;16.10;69.80;;;;;;5038115;28;20029;-67
2023/05/20 02:02:14;;;;;;;6.57;4.20;;;16.10;69.80;;;;;;5038392;28;20045;-68
2023/05/20 02:04:46;;;;;;;6.30;4.13;;;16.10;69.80;;;;;;5038536;28;20533;-67
2023/05/20 02:07:14;;;;;;;6.43;3.60;;;16.00;69.80;;;;;;5038360;28;20033;-67
2023/05/20 02:09:40;;;;;;;6.47;3.78;;;16.00;70.00;;;;;;5037964;28;20036;-69
2023/05/20 02:12:07;;;;;;;6.05;3.70;;;16.00;70.10;;;;;;5038247;28;20048;-69
2023/05/20 02:14:33;;;;;;;6.43;3.97;;;16.00;70.20;;;;;;5038008;28;20091;-70
2023/05/20 02:16:59;;;;;;;6.68;4.05;;;16.00;70.30;;;;;;5037833;28;20021;-70
2023/05/20 02:19:25;;;;;;;5.72;3.80;;;16.00;70.50;;;;;;5037832;28;20041;-70
2023/05/20 02:21:50;;;;;;;8.27;4.22;;;16.00;70.40;;;;;;5037624;28;20029;-70
2023/05/20 02:24:16;;;;;;;7.10;3.90;;;16.00;70.60;;;;;;5037447;28;20378;-69
2023/05/20 02:26:45;;;;;;;5.40;3.42;;;16.00;70.60;;;;;;5037695;28;20018;-70
2023/05/20 02:29:11;;;;;;;6.40;3.88;;;16.00;70.40;;;;;;5037868;28;20048;-70
2023/05/20 02:31:37;;;;;;;6.95;3.90;;;16.00;70.50;;;;;;5037834;28;20345;-70
2023/05/20 02:34:03;;;;;;;6.05;3.80;;;16.00;70.30;;;;;;5037465;28;20351;-70
2023/05/20 02:36:31;;;;;;;5.53;3.78;;;16.00;70.30;;;;;;5037407;28;20022;-69
2023/05/20 02:38:57;;;;;;;7.97;4.65;;;16.00;70.10;;;;;;5037665;28;20042;-70
2023/05/20 02:41:23;;;;;;;7.38;4.63;;;16.00;70.20;;;;;;5037341;28;20029;-70
2023/05/20 02:43:49;;;;;;;8.93;5.47;;;15.90;70.20;;;;;;5037797;28;20025;-69
2023/05/20 02:46:17;;;;;;;8.63;5.05;;;15.90;70.10;;;;;;5037814;28;20454;-70
2023/05/20 02:48:43;;;;;;;9.13;5.43;;;16.00;70.20;;;;;;5037223;28;20379;-70
2023/05/20 02:51:09;;;;;;;7.82;5.18;;;15.90;70.20;;;;;;5037234;28;20057;-67
2023/05/20 02:53:35;;;;;;;9.40;5.35;;;15.90;70.30;;;;;;5037109;28;20071;-69
2023/05/20 02:56:03;;;;;;;8.52;5.43;;;15.90;70.30;;;;;;5037363;28;20025;-70
2023/05/20 02:58:29;;;;;;;8.73;5.28;;;15.90;70.40;;;;;;5037069;28;20044;-69
2023/05/20 03:00:56;;;;;;;7.65;4.82;;;15.90;70.40;;;;;;5037190;28;20033;-70
2023/05/20 03:03:25;;;;;;;6.78;4.50;;;15.90;70.50;;;;;;5037168;28;20041;-70
2023/05/20 03:05:52;;;;;;;7.35;4.72;;;15.90;70.60;;;;;;5036906;28;20389;-70
2023/05/20 03:08:20;;;;;;;7.75;4.75;;;15.90;70.60;;;;;;5037096;28;20033;-70
2023/05/20 03:10:46;;;;;;;7.70;4.53;;;15.90;70.70;;;;;;5036828;28;20026;-69
2023/05/20 03:13:14;;;;;;;5.97;4.15;;;15.90;70.70;;;;;;5037096;28;20053;-69
2023/05/20 03:15:44;;;;;;;7.50;4.10;;;15.90;70.70;;;;;;5036992;28;20068;-70
2023/05/20 03:18:11;;;;;;;5.75;3.78;;;15.90;70.70;;;;;;5036908;28;20053;-69
2023/05/20 03:20:37;;;;;;;8.00;4.18;;;15.90;70.80;;;;;;5036547;28;20414;-67
2023/05/20 03:23:04;;;;;;;6.13;4.22;;;15.90;70.90;;;;;;5036513;28;20029;-67
2023/05/20 03:25:30;;;;;;;5.38;3.80;;;15.90;70.90;;;;;;5036404;28;20077;-70
2023/05/20 03:27:59;;;;;;;7.65;4.47;;;15.90;70.90;;;;;;5037064;28;20077;-67
2023/05/20 03:30:25;;;;;;;6.47;3.90;;;15.80;70.90;;;;;;5036495;28;20033;-67
2023/05/20 03:32:52;;;;;;;7.43;3.92;;;15.90;70.90;;;;;;5034874;28;20029;-67
2023/05/20 03:35:18;;;;;;;5.95;3.90;;;15.80;70.90;;;;;;5036605;28;20450;-69
2023/05/20 03:37:44;;;;;;;5.70;3.78;;;15.90;70.80;;;;;;5036277;28;20025;-67
2023/05/20 03:40:10;;;;;;;6.85;4.28;;;15.90;70.80;;;;;;5036427;28;20033;-67
2023/05/20 03:42:37;;;;;;;4.93;3.65;;;15.90;70.70;;;;;;5035363;28;20013;-68
2023/05/20 03:45:05;;;;;;;5.38;3.30;;;15.90;70.60;;;;;;5036276;28;20332;-70
2023/05/20 03:47:31;;;;;;;6.18;3.60;;;15.90;70.50;;;;;;5036106;28;20351;-69
2023/05/20 03:49:57;;;;;;;5.00;3.53;;;15.90;70.60;;;;;;5036379;28;20423;-69
2023/05/20 03:52:23;;;;;;;6.97;3.58;;;15.90;70.50;;;;;;5036349;28;20022;-67
2023/05/20 03:54:49;;;;;;;5.22;3.40;;;15.90;70.50;;;;;;5035926;28;20089;-67
2023/05/20 03:57:15;;;;;;;4.88;3.40;;;15.90;70.50;;;;;;5036015;28;20017;-67
2023/05/20 03:59:41;;;;;;;6.07;3.70;;;15.90;70.50;;;;;;5035865;28;20036;-67
2023/05/20 04:02:08;;;;;;;3.63;2.80;;;15.90;70.50;;;;;;5035827;28;20045;-67
2023/05/20 04:04:35;;;;;;;4.38;3.13;;;15.90;70.40;;;;;;5035747;28;20021;-69
2023/05/20 04:07:02;;;;;;;6.53;3.90;;;15.90;70.40;;;;;;5035763;28;20501;-69
2023/05/20 04:09:28;;;;;;;5.63;3.30;;;16.00;70.40;;;;;;5036015;28;20072;-67
2023/05/20 04:11:54;;;;;;;6.65;3.70;;;16.00;70.20;;;;;;5035739;28;20029;-67
2023/05/20 04:14:20;;;;;;;4.22;3.00;;;16.00;70.20;;;;;;5036124;28;20040;-67
2023/05/20 04:16:46;;;;;;;5.93;3.10;;;16.00;70.10;;;;;;5035885;28;20026;-67
2023/05/20 04:19:12;;;;;;;5.22;3.42;;;16.10;70.10;;;;;;5035634;28;20057;-67
2023/05/20 04:21:38;;;;;;;5.43;3.22;;;16.10;70.00;;;;;;5035507;28;20029;-67
2023/05/20 04:24:04;;;;;;;4.55;3.00;;;16.20;70.00;;;;;;5035727;28;20075;-67
2023/05/20 04:26:30;;;;;;;4.70;3.33;;;16.20;69.90;;;;;;5035779;28;20454;-67
2023/05/20 04:28:57;;;;;;;5.13;3.15;;;16.20;69.90;;;;;;5035725;28;20025;-67
2023/05/20 04:31:26;;;;;;;6.38;3.40;;;16.30;69.90;;;;;;5035424;28;20075;-67
2023/05/20 04:33:53;;;;;;;5.47;3.50;;;16.30;69.80;;;;;;5035345;28;20029;-67
2023/05/20 04:36:19;;;;;;;5.65;3.33;;;16.30;69.80;;;;;;5035301;28;20017;-67
2023/05/20 04:38:47;;;;;;;6.65;3.83;;;16.40;69.70;;;;;;5035333;28;20033;-67
2023/05/20 04:41:14;;;;;;;5.55;3.45;;;16.40;69.60;;;;;;5034284;28;20358;-69
2023/05/20 04:43:41;;;;;;;6.55;3.20;;;16.40;69.40;;;;;;5035053;28;20041;-70
2023/05/20 04:46:08;;;;;;;5.55;3.28;;;16.40;69.40;;;;;;5035355;28;20017;-67
2023/05/20 04:48:34;;;;;;;5.38;3.55;;;16.40;69.30;;;;;;5035745;28;20032;-70
2023/05/20 04:51:01;;;;;;;4.93;3.30;;;16.50;69.20;;;;;;5035220;28;20029;-70
2023/05/20 04:53:27;;;;;;;6.75;3.47;;;16.50;69.10;;;;;;5035044;28;20037;-68
2023/05/20 04:55:56;;;;;;;5.22;3.40;;;16.50;69.20;;;;;;5035429;28;20124;-67
2023/05/20 04:58:23;;;;;;;5.57;3.50;;;16.50;69.10;;;;;;5035091;28;20057;-67
2023/05/20 05:00:50;;;;;;;5.32;3.45;;;16.60;69.00;;;;;;5034107;28;20454;-70
2023/05/20 05:03:17;;;;;;;7.00;3.63;;;16.60;69.00;;;;;;5035503;28;20025;-67
2023/05/20 05:05:43;;;;;;;4.95;3.30;;;16.60;68.90;;;;;;5035029;28;20362;-67
2023/05/20 05:08:12;;;;;;;8.15;3.70;;;16.70;68.80;;;;;;5034019;28;20407;-67
2023/05/20 05:10:38;;;;;;;5.72;3.42;;;16.70;68.80;;;;;;5034959;28;20026;-67
2023/05/20 05:13:04;;;;;;;6.30;3.97;;;16.80;68.70;;;;;;5034956;28;20454;-69
2023/05/20 05:15:30;;;;;;;5.35;3.13;;;16.80;68.60;;;;;;5034901;28;20033;-70
2023/05/20 05:17:56;;;;;;;5.43;3.88;;;16.90;68.40;;;;;;5034946;28;20041;-69
2023/05/20 05:20:22;;;;;;;5.55;3.30;;;16.90;68.30;;;;;;5034872;28;20350;-69
2023/05/20 05:22:51;;;;;;;4.53;3.25;;;16.90;68.20;;;;;;5034898;28;20358;-70
2023/05/20 05:25:17;;;;;;;6.03;3.55;;;17.00;68.10;;;;;;5034615;28;20107;-70
2023/05/20 05:27:49;;;;;;;4.40;3.05;;;17.00;68.00;;;;;;5035357;28;20422;-70
2023/05/20 05:30:15;;;;;;;5.35;3.33;;;17.00;68.00;;;;;;5035133;28;20025;-70
2023/05/20 05:32:41;;;;;;;5.13;3.40;;;17.10;67.80;;;;;;5034789;28;20044;-70
2023/05/20 05:35:07;;;;;;;5.35;3.35;;;17.20;67.80;;;;;;5034751;28;20435;-70
2023/05/20 05:37:33;;;;;;;4.35;3.28;;;17.30;67.60;;;;;;5035018;28;20515;-67
2023/05/20 05:39:59;;;;;;;4.22;2.80;;;17.40;67.60;;;;;;5034907;28;20057;-67
2023/05/20 05:42:25;;;;;;;5.35;3.33;;;17.40;67.40;;;;;;5034693;28;20021;-67
2023/05/20 05:44:51;;;;;;;5.88;3.58;;;17.50;67.20;;;;;;5034594;28;20097;-67
2023/05/20 05:47:17;;;;;;;5.00;3.00;;;17.60;67.00;;;;;;5034672;28;20124;-67
2023/05/20 05:49:43;;;;;;;6.40;3.30;;;17.70;66.80;;;;;;5034902;28;20453;-70
2023/05/20 05:52:09;;;;;;;6.22;3.50;;;17.90;66.60;;;;;;5035082;28;20347;-70
2023/05/20 05:54:35;;;;;;;7.72;3.50;;;18.30;66.60;;;;;;5034468;28;20025;-69
2023/05/20 05:57:01;;;;;;;5.47;3.22;;;18.90;65.90;;;;;;5036910;28;20112;-69
2023/05/20 05:59:27;;;;;;;4.63;3.15;;;19.70;64.80;;;;;;5038243;28;20399;-69
2023/05/20 06:01:53;;;;;;;8.60;3.17;;;20.30;63.50;;;;;;5038624;28;20033;-74
2023/05/20 06:04:18;;;;;;;6.93;2.97;;;20.70;62.20;;;;;;5037027;28;20332;-69
2023/05/20 06:06:44;;;;;;;5.82;3.28;;;20.80;61.40;;;;;;5038078;28;20026;-69
2023/05/20 06:09:10;;;;;;;6.50;3.20;;;20.80;60.90;;;;;;5038305;28;20029;-69
2023/05/20 06:11:36;;;;;;;4.75;3.20;;;21.20;60.50;;;;;;5037988;28;20496;-70
2023/05/20 06:14:02;;;;;;;3.95;3.20;;;22.00;60.20;;;;;;5036870;28;20383;-70
2023/05/20 06:16:28;;;;;;;5.00;3.65;;;22.70;58.60;;;;;;5036905;28;20072;-70
2023/05/20 06:18:56;;;;;;;5.13;3.35;;;23.20;56.80;;;;;;5037870;28;20101;-69
2023/05/20 06:21:23;;;;;;;5.60;3.38;;;23.50;56.10;;;;;;5036737;28;20057;-70
2023/05/20 06:23:49;;;;;;;7.95;3.80;;;23.60;55.30;;;;;;5037485;28;20113;-70
2023/05/20 06:26:15;;;;;;;5.15;3.40;;;23.50;54.70;;;;;;5037739;28;20442;-69
2023/05/20 06:28:41;;;;;;;4.45;3.38;;;23.20;54.40;;;;;;5037713;28;20025;-69
2023/05/20 06:31:07;;;;;;;6.75;3.75;;;22.90;54.70;;;;;;5037898;28;20025;-71
2023/05/20 06:33:33;;;;;;;5.78;3.63;;;22.60;55.20;;;;;;5037474;28;20029;-71
2023/05/20 06:36:02;;;;;;;5.60;3.60;;;22.20;55.40;;;;;;5037531;28;20148;-69
2023/05/20 06:38:28;;;;;;;6.53;3.83;;;21.90;55.80;;;;;;5038013;28;20037;-71
2023/05/20 06:40:54;;;;;;;5.70;3.67;;;21.70;56.10;;;;;;5037686;28;20025;-69
2023/05/20 06:43:19;;;;;;;5.97;3.60;;;21.50;56.90;;;;;;5037883;28;20319;-72
2023/05/20 06:45:45;;;;;;;5.25;3.60;;;21.20;57.30;;;;;;5037679;28;20426;-69
2023/05/20 06:48:11;;;;;;;6.05;3.38;;;21.00;57.80;;;;;;5036389;28;20040;-69
2023/05/20 06:50:37;;;;;;;5.97;4.05;;;20.80;58.30;;;;;;5037545;28;20025;-72
2023/05/20 06:53:03;;;;;;;5.30;3.47;;;20.60;58.70;;;;;;5037768;28;20377;-70
2023/05/20 06:55:29;;;;;;;6.88;4.05;;;20.40;59.10;;;;;;5037459;28;20071;-70
2023/05/20 06:57:55;;;;;;;5.43;3.70;;;20.30;59.50;;;;;;5037143;28;20033;-68
2023/05/20 07:00:21;;;;;;;6.47;4.03;;;20.10;59.80;;;;;;5037275;28;20084;-70
2023/05/20 07:02:47;;;;;;;7.15;3.90;;;20.00;60.10;;;;;;5037022;28;20029;-69
2023/05/20 07:05:13;;;;;;;7.32;4.15;;;19.90;60.30;;;;;;5036919;28;20033;-68
2023/05/20 07:07:39;;;;;;;6.55;4.05;;;19.80;60.30;;;;;;5037301;28;20029;-67
2023/05/20 07:10:06;;;;;;;6.25;4.15;;;19.80;60.60;;;;;;5037428;28;20025;-69
2023/05/20 07:12:32;;;;;;;6.50;4.38;;;19.70;60.00;;;;;;5036885;28;20018;-68
2023/05/20 07:14:58;;;;;;;7.07;4.60;;;19.60;60.20;;;;;;5036779;28;20064;-70
2023/05/20 07:17:25;;;;;;;7.43;4.35;;;19.60;59.90;;;;;;5035771;28;20025;-68
2023/05/20 07:19:51;;;;;;;7.00;4.28;;;19.50;60.10;;;;;;5037258;28;20212;-70
2023/05/20 07:22:17;;;;;;;8.70;5.00;;;19.50;60.10;;;;;;5037109;28;20036;-70
2023/05/20 07:24:44;;;;;;;8.80;4.15;;;19.50;60.10;;;;;;5036439;28;20132;-71
2023/05/20 07:27:10;;;;;;;8.27;4.28;;;19.40;60.20;;;;;;5036571;28;20029;-68
2023/05/20 07:29:37;;;;;;;7.95;4.43;;;19.40;60.30;;;;;;5036415;28;20021;-68
2023/05/20 07:32:04;;;;;;;10.95;4.85;;;19.40;60.40;;;;;;5036734;28;20394;-70
2023/05/20 07:34:30;;;;;;;8.30;4.60;;;19.40;60.30;;;;;;5036319;28;20067;-68
2023/05/20 07:36:56;;;;;;;7.90;4.80;;;19.40;60.40;;;;;;5036362;28;20033;-68
2023/05/20 07:39:23;;;;;;;6.60;4.25;;;19.40;60.40;;;;;;5036319;28;20025;-70
2023/05/20 07:41:49;;;;;;;7.47;4.53;;;19.40;60.30;;;;;;5036201;28;20068;-68
2023/05/20 07:44:17;;;;;;;11.23;4.78;;;19.40;60.30;;;;;;5036416;28;20025;-70
2023/05/20 07:46:44;;;;;;;7.45;4.50;;;19.30;60.60;;;;;;5036160;28;20438;-70
2023/05/20 07:49:10;;;;;;;6.43;4.45;;;19.30;60.70;;;;;;5036130;28;20518;-70
2023/05/20 07:51:36;;;;;;;7.32;4.45;;;19.30;60.90;;;;;;5036336;28;20438;-70
2023/05/20 07:54:02;;;;;;;7.80;4.75;;;19.30;61.00;;;;;;5036201;28;20040;-70
2023/05/20 07:56:28;;;;;;;7.68;5.07;;;19.30;61.20;;;;;;5036434;28;20036;-70
2023/05/20 07:58:58;;;;;;;8.20;5.25;;;19.30;61.20;;;;;;5036449;28;20040;-68
2023/05/20 08:01:27;;;;;;;8.02;5.03;;;19.30;62.00;;;;;;5036383;28;20147;-68
2023/05/20 08:03:54;;;;;;;8.80;5.28;;;19.30;61.70;;;;;;5035936;28;20427;-68
2023/05/20 08:06:20;;;;;;;7.95;4.68;;;19.30;61.90;;;;;;5035669;28;20112;-68
2023/05/20 08:08:46;;;;;;;10.80;5.20;;;19.40;62.00;;;;;;5035711;28;20454;-70
2023/05/20 08:11:12;;;;;;;7.45;4.72;;;19.40;62.00;;;;;;5035701;28;20466;-68
2023/05/20 08:13:39;;;;;;;7.32;4.90;;;19.40;62.20;;;;;;5035605;28;20029;-69
2023/05/20 08:16:06;;;;;;;9.38;4.95;;;19.40;62.10;;;;;;5035570;28;20037;-68
2023/05/20 08:18:33;;;;;;;7.78;4.95;;;19.40;62.30;;;;;;5035377;28;20087;-70
2023/05/20 08:21:00;;;;;;;8.95;4.88;;;19.40;62.30;;;;;;5035142;28;20466;-68
2023/05/20 08:23:25;;;;;;;10.15;5.55;;;19.30;62.40;;;;;;5035454;28;20121;-68
2023/05/20 08:25:52;;;;;;;7.88;5.18;;;19.30;62.70;;;;;;5035504;28;20470;-70
2023/05/20 08:28:18;;;;;;;8.23;5.57;;;19.30;63.10;;;;;;5036155;28;20036;-67
2023/05/20 08:30:44;;;;;;;9.23;5.85;;;19.30;63.10;;;;;;5035619;28;20029;-70
2023/05/20 08:33:11;;;;;;;9.18;6.00;;;19.30;63.30;;;;;;5035323;28;20030;-70
2023/05/20 08:35:38;;;;;;;9.82;5.85;;;19.30;63.80;;;;;;5035221;28;20105;-69
2023/05/20 08:38:05;;;;;;;8.57;5.47;;;19.30;63.70;;;;;;5035489;28;20033;-67
2023/05/20 08:40:34;;;;;;;9.07;5.72;;;19.30;64.40;;;;;;5035138;28;20037;-70
2023/05/20 08:43:00;;;;;;;9.05;5.88;;;19.30;64.80;;;;;;5035474;28;20041;-70
2023/05/20 08:45:27;;;;;;;9.73;5.68;;;19.30;65.00;;;;;;5034488;28;20025;-70
2023/05/20 08:47:53;;;;;;;8.77;5.05;;;19.40;64.50;;;;;;5035115;28;20108;-71
2023/05/20 08:50:20;;;;;;;8.02;5.10;;;19.40;64.50;;;;;;5035119;28;20063;-71
2023/05/20 08:52:48;;;;;;;7.68;5.10;;;19.50;64.30;;;;;;5035035;28;20033;-70
2023/05/20 08:55:17;;;;;;;11.63;5.80;;;19.60;64.10;;;;;;5034962;28;20021;-68
2023/05/20 08:57:44;;;;;;;9.63;5.40;;;19.70;63.80;;;;;;5035328;28;20030;-68
2023/05/20 09:00:15;;;;;;;8.40;5.25;;;19.80;63.70;;;;;;5034331;28;20104;-68
2023/05/20 09:02:40;;;;;;;9.60;5.95;;;19.90;63.70;;;;;;5034986;28;20435;-71
2023/05/20 09:05:09;;;;;;;8.55;5.22;;;19.90;63.50;;;;;;5035030;28;20097;-68
2023/05/20 09:07:35;;;;;;;9.25;5.60;;;19.90;63.40;;;;;;5035192;28;20025;-71
2023/05/20 09:10:02;;;;;;;13.77;7.32;;;19.90;63.30;;;;;;5035209;28;20017;-71
2023/05/20 09:12:28;;;;;;;9.48;5.85;;;20.00;63.60;;;;;;5034727;28;20025;-69
2023/05/20 09:14:54;;;;;;;11.15;6.05;;;20.00;63.80;;;;;;5035150;28;20323;-69
2023/05/20 09:17:22;;;;;;;10.10;6.28;;;20.10;64.40;;;;;;5046726;28;20028;-68
2023/05/20 09:19:50;;;;;;;11.15;6.63;;;20.20;63.20;;;;;;5054364;28;20481;-70
2023/05/20 09:22:22;;;;;;;9.93;5.85;;;20.30;63.80;;;;;;5053303;28;20029;-68
2023/05/20 09:24:50;;;;;;;10.48;6.68;;;20.30;63.40;;;;;;5054692;28;20049;-68
2023/05/20 09:27:16;;;;;;;13.40;7.35;;;20.40;63.20;;;;;;5054940;28;20025;-68
2023/05/20 09:29:42;;;;;;;9.05;6.32;;;20.50;63.20;;;;;;5054696;28;20107;-70
2023/05/20 09:32:09;;;;;;;13.07;6.80;;;20.60;63.10;;;;;;5056994;28;20064;-69
2023/05/20 09:34:36;;;;;;;11.00;6.95;;;20.70;62.40;;;;;;5057544;28;20033;-70
2023/05/20 09:37:06;;;;;;;10.50;6.43;;;20.70;62.20;;;;;;5058766;28;20040;-67
2023/05/20 09:39:40;;;;;;;8.65;6.03;;;20.70;61.80;;;;;;5058749;28;20103;-70
2023/05/20 09:42:27;;;;;;;11.32;6.78;;;20.80;62.10;;;;;;5058694;28;20029;-70
2023/05/20 09:44:56;;;;;;;10.77;6.97;;;20.90;61.30;;;;;;5058311;28;20033;-70
2023/05/20 09:47:26;;;;;;;12.63;7.20;;;20.90;61.10;;;;;;5058361;28;20040;-68
2023/05/20 09:49:52;;;;;;;11.05;6.85;;;20.90;60.50;;;;;;5058210;28;20032;-67
2023/05/20 09:52:19;;;;;;;9.73;6.50;;;21.00;60.30;;;;;;5058247;28;20021;-68
2023/05/20 09:54:47;;;;;;;11.48;7.45;;;21.00;60.40;;;;;;5058042;28;20033;-67
2023/05/20 09:57:13;;;;;;;14.07;7.82;;;21.10;59.60;;;;;;5058081;28;20441;-68
2023/05/20 09:59:40;;;;;;;14.57;8.65;;;21.20;59.20;;;;;;5058600;28;20029;-70
2023/05/20 10:02:07;;;;;;;12.27;8.25;;;21.20;58.30;;;;;;5058202;28;20064;-69
2023/05/20 10:04:42;;;;;;;12.90;8.60;;;21.20;58.50;;;;;;5058226;28;20045;-70
2023/05/20 10:07:41;;;;;;;13.70;9.52;;;21.30;58.30;;;;;;5058260;28;20453;-68
2023/05/20 10:10:19;;;;;;;15.02;8.60;;;21.30;56.90;;;;;;5058218;28;20108;-70
2023/05/20 10:13:17;;;;;;;16.17;8.85;;;21.40;58.00;;;;;;5058188;28;20101;-68
2023/05/20 10:16:22;;;;;;;14.77;9.68;;;21.40;57.40;;;;;;5057859;28;20118;-70
2023/05/20 10:19:00;;;;;;;13.70;9.48;;;21.40;57.30;;;;;;5058332;28;20419;-67
2023/05/20 10:21:26;;;;;;;13.75;9.43;;;21.30;57.80;;;;;;5058267;28;20036;-67
2023/05/20 10:23:52;;;;;;;15.20;10.20;;;21.30;57.80;;;;;;5057522;28;20025;-67
2023/05/20 10:26:18;;;;;;;14.07;10.00;;;21.30;57.80;;;;;;5057551;28;20052;-70
2023/05/20 10:28:46;;;;;;;14.95;9.90;;;21.20;57.90;;;;;;5057670;28;20033;-68
2023/05/20 10:31:22;;;;;;;15.20;10.05;;;21.10;57.40;;;;;;5057826;28;20163;-67
2023/05/20 10:33:52;;;;;;;17.65;10.05;;;21.00;57.40;;;;;;5057734;28;20032;-67
2023/05/20 10:36:29;;;;;;;15.75;9.85;;;21.00;57.50;;;;;;5057740;28;20029;-67
2023/05/20 10:38:57;;;;;;;15.40;10.15;;;20.90;57.20;;;;;;5057389;28;20037;-68
2023/05/20 10:41:28;;;;;;;17.38;10.23;;;20.90;57.50;;;;;;5057329;28;20036;-69
2023/05/20 10:44:04;;;;;;;14.90;9.70;;;20.90;57.90;;;;;;5057111;28;20028;-68
2023/05/20 10:46:32;;;;;;;16.85;9.80;;;20.90;57.90;;;;;;5057627;28;20026;-70
2023/05/20 10:49:00;;;;;;;14.10;9.77;;;20.80;58.20;;;;;;5058035;28;20100;-70
2023/05/20 10:51:28;;;;;;;17.10;10.27;;;20.90;58.30;;;;;;5057232;28;20037;-70
2023/05/20 10:53:55;;;;;;;13.50;9.70;;;20.90;58.00;;;;;;5057644;28;20033;-68
2023/05/20 10:56:25;;;;;;;16.17;9.80;;;20.90;58.40;;;;;;5057668;28;20047;-71
2023/05/20 10:58:53;;;;;;;18.75;9.80;;;20.90;58.30;;;;;;5057087;28;20434;-70
2023/05/20 11:01:25;;;;;;;13.52;9.18;;;20.90;58.30;;;;;;5056986;28;20076;-70
2023/05/20 11:03:54;;;;;;;17.65;9.85;;;20.90;58.40;;;;;;5057473;28;20361;-70
2023/05/20 11:06:26;;;;;;;14.88;9.48;;;20.90;58.40;;;;;;5057214;28;20107;-67
2023/05/20 11:08:52;;;;;;;13.75;9.77;;;20.90;58.60;;;;;;5057183;28;20346;-70
2023/05/20 11:11:18;;;;;;;14.77;9.57;;;20.80;58.80;;;;;;5056914;28;20465;-68
2023/05/20 11:13:49;;;;;;;15.98;9.75;;;20.90;59.10;;;;;;5056794;28;20025;-70
2023/05/20 11:16:15;;;;;;;13.50;9.32;;;20.80;59.40;;;;;;5057074;28;20029;-67
2023/05/20 11:18:41;;;;;;;14.38;9.30;;;20.80;59.60;;;;;;5057222;28;20075;-67
2023/05/20 11:21:06;;;;;;;13.13;9.48;;;20.70;60.00;;;;;;5056563;28;20032;-67
2023/05/20 11:23:32;;;;;;;12.25;8.93;;;20.70;60.10;;;;;;5056824;28;20025;-70
2023/05/20 11:25:59;;;;;;;15.60;9.45;;;20.60;60.50;;;;;;5056426;28;20044;-70
2023/05/20 11:28:25;;;;;;;13.95;10.07;;;20.60;60.70;;;;;;5056524;28;20422;-70
2023/05/20 11:30:52;;;;;;;14.07;9.68;;;20.60;61.70;;;;;;5055498;28;20327;-70
2023/05/20 11:33:19;;;;;;;15.32;8.95;;;20.60;61.60;;;;;;5056615;28;20059;-70
2023/05/20 11:35:50;;;;;;;13.82;10.00;;;20.60;61.60;;;;;;5056647;28;20508;-67
2023/05/20 11:38:17;;;;;;;12.52;8.50;;;20.60;61.80;;;;;;5056319;28;20108;-68
2023/05/20 11:40:45;;;;;;;15.30;9.57;;;20.60;61.90;;;;;;5056448;28;20025;-70
2023/05/20 11:43:13;;;;;;;12.88;8.32;;;20.60;62.10;;;;;;5056136;28;20036;-70
2023/05/20 11:45:45;;;;;;;13.25;8.80;;;20.60;62.30;;;;;;5056121;28;20095;-68
2023/05/20 11:48:13;;;;;;;15.13;10.40;;;20.60;62.20;;;;;;5056363;28;20032;-67
2023/05/20 11:50:41;;;;;;;13.20;8.18;;;20.70;63.00;;;;;;5056022;28;20449;-67
2023/05/20 11:53:14;;;;;;;13.48;9.40;;;20.70;62.90;;;;;;5055966;28;20386;-67
2023/05/20 11:55:57;;;;;;;13.43;9.57;;;20.80;63.10;;;;;;5056038;28;20021;-67
2023/05/20 11:58:29;;;;;;;15.15;9.70;;;20.80;63.20;;;;;;5056207;28;20048;-70
2023/05/20 12:00:56;;;;;;;14.75;9.80;;;20.90;63.70;;;;;;5056102;28;20020;-67
2023/05/20 12:03:22;;;;;;;14.10;9.05;;;20.90;63.80;;;;;;5056034;28;20021;-67
2023/05/20 12:05:50;;;;;;;15.45;10.30;;;20.90;63.90;;;;;;5055824;28;20032;-67
2023/05/20 12:08:16;;;;;;;15.90;11.70;;;21.00;64.00;;;;;;5055723;28;20511;-68
2023/05/20 12:10:43;;;;;;;12.80;8.65;;;21.00;65.20;;;;;;5055750;28;20052;-67
2023/05/20 12:13:12;;;;;;;12.65;9.02;;;20.90;64.10;;;;;;5055671;28;20033;-67
2023/05/20 12:15:38;;;;;;;13.73;9.10;;;20.90;64.10;;;;;;5055866;28;20074;-70
2023/05/20 12:18:04;;;;;;;13.02;9.30;;;20.90;64.00;;;;;;5055908;28;20017;-70
2023/05/20 12:20:32;;;;;;;12.75;8.80;;;20.90;63.90;;;;;;5055530;28;20068;-70
2023/05/20 12:22:59;;;;;;;16.05;9.73;;;20.90;64.40;;;;;;5055532;28;20017;-68
2023/05/20 12:25:25;;;;;;;13.85;9.85;;;20.80;64.60;;;;;;5055132;28;20045;-68
2023/05/20 12:27:51;;;;;;;15.45;8.93;;;20.70;65.00;;;;;;5055736;28;20389;-67
2023/05/20 12:30:19;;;;;;;15.32;10.13;;;20.70;65.20;;;;;;5055419;28;20025;-67
2023/05/20 12:32:46;;;;;;;15.02;9.32;;;20.60;65.20;;;;;;5055640;28;20024;-70
2023/05/20 12:35:13;;;;;;;15.73;10.32;;;20.50;65.60;;;;;;5055368;28;20021;-70
2023/05/20 12:37:40;;;;;;;15.65;8.93;;;20.50;66.10;;;;;;5055303;28;20025;-70
2023/05/20 12:40:08;;;;;;;14.10;10.00;;;20.40;66.20;;;;;;5055282;28;20485;-71
2023/05/20 12:42:40;;;;;;;16.08;9.57;;;20.30;67.20;;;;;;5055650;28;20366;-67
2023/05/20 12:45:08;;;;;;;14.77;9.50;;;20.30;67.30;;;;;;5055173;28;20021;-67